This is the latest recevied weather packets stored in our database for station/object W7PLC. If no packets are shown the sender has not sent any weather packets the latest 10 day(s).
| Time | Temp. | Humidity | Pressure | Rain* | Wind** | Luminosity | Snow |
|---|---|---|---|---|---|---|---|
| 1777916277 | 21.67° C | 60% | 1010.1 hPa | 0 mm | - | 510 W/m² | - |
| 1777915974 | 22.78° C | 60% | 1010.4 hPa | 0 mm | - | 480 W/m² | - |
| 1777915671 | 21.11° C | 62% | 1010.2 hPa | 0 mm | - | 501 W/m² | - |
| 1777915367 | 21.11° C | 63% | 1010.3 hPa | 0 mm | - | 530 W/m² | - |
| 1777915063 | 21.11° C | 62% | 1010.3 hPa | 0 mm | - | 523 W/m² | - |
| 1777914761 | 22.22° C | 61% | 1010.1 hPa | 0 mm | - | 532 W/m² | - |
| 1777914458 | 21.11° C | 63% | 1010.1 hPa | 0 mm | - | 489 W/m² | - |
| 1777914155 | 21.11° C | 63% | 1010.2 hPa | 0 mm | - | 445 W/m² | - |
| 1777913851 | 21.67° C | 62% | 1009.9 hPa | 0 mm | - | 478 W/m² | - |
| 1777913547 | 21.67° C | 60% | 1010.2 hPa | 0 mm | - | 478 W/m² | - |
| 1777913244 | 21.67° C | 60% | 1009.9 hPa | 0 mm | - | 457 W/m² | - |
| 1777912941 | 20.56° C | 65% | 1010 hPa | 0 mm | - | 443 W/m² | - |
| 1777912637 | 21.11° C | 61% | 1009.9 hPa | 0 mm | - | 415 W/m² | - |
| 1777912333 | 20° C | 67% | 1009.7 hPa | 0 mm | - | 397 W/m² | - |
| 1777912029 | 19.44° C | 68% | 1009.8 hPa | 0 mm | - | 418 W/m² | - |
| 1777911725 | 19.44° C | 66% | 1009.5 hPa | 0 mm | - | 400 W/m² | - |
| 1777911422 | 19.44° C | 66% | 1009.6 hPa | 0 mm | - | 362 W/m² | - |
| 1777911119 | 19.44° C | 66% | 1009.6 hPa | 0 mm | - | 301 W/m² | - |
| 1777910817 | 18.89° C | 69% | 1009.6 hPa | 0 mm | - | 321 W/m² | - |
| 1777910513 | 18.33° C | 70% | 1009.5 hPa | 0 mm | - | 328 W/m² | - |
| 1777910210 | 17.78° C | 72% | 1009.6 hPa | 0 mm | - | 286 W/m² | - |
| 1777909907 | 17.78° C | 71% | 1009.6 hPa | 0 mm | - | 301 W/m² | - |
| 1777909604 | 17.78° C | 72% | 1009.4 hPa | 0 mm | - | 263 W/m² | - |
| 1777909301 | 17.22° C | 75% | 1009.4 hPa | 0 mm | - | 280 W/m² | - |
| 1777908999 | 16.67° C | 76% | 1009.4 hPa | 0 mm | - | 252 W/m² | - |
* Rain latest hour (hover to see other rain measurements)
** Current wind speed in m/s (hover to see current wind gust speed)